Time;durP1;ratioP1;P1;durP2;ratioP2;P2;SDS_P1;SDS_P2;PMS_P1;PMS_P2;Temp;Humidity;BMP_temperature;BMP_pressure;BME280_temperature;BME280_humidity;BME280_pressure;Samples;Min_cycle;Max_cycle;Signal;HPM_P1;HPM_P2
2022/06/08 00:01:46;;;;;;;13.80;9.13;;;24.00;75.80;;;;;;6299194;27;81029;-71
2022/06/08 00:04:46;;;;;;;16.88;9.45;;;24.00;74.90;;;;;;6298337;27;81403;-71
2022/06/08 00:07:47;;;;;;;15.98;9.23;;;24.00;75.30;;;;;;6307887;27;80100;-72
2022/06/08 00:10:47;;;;;;;15.50;9.38;;;24.00;75.40;;;;;;6301672;27;81071;-71
2022/06/08 00:13:47;;;;;;;11.75;7.65;;;24.00;75.40;;;;;;6307755;27;80342;-71
2022/06/08 00:16:48;;;;;;;18.33;8.32;;;24.10;74.50;;;;;;6303903;27;80451;-73
2022/06/08 00:19:48;;;;;;;11.57;7.70;;;24.10;74.60;;;;;;6308002;27;80543;-72
2022/06/08 00:22:49;;;;;;;15.00;8.20;;;24.10;74.70;;;;;;6287428;27;81915;-72
2022/06/08 00:25:49;;;;;;;11.35;7.88;;;24.10;74.10;;;;;;6274528;27;81947;-72
2022/06/08 00:28:50;;;;;;;11.90;8.68;;;24.10;73.80;;;;;;6307368;27;80319;-72
2022/06/08 00:31:50;;;;;;;15.48;8.13;;;24.00;73.80;;;;;;6286249;27;80794;-71
2022/06/08 00:34:51;;;;;;;13.98;9.32;;;24.00;74.00;;;;;;6284610;27;87105;-71
2022/06/08 00:37:51;;;;;;;14.75;8.55;;;24.00;74.20;;;;;;6307740;27;80842;-72
2022/06/08 00:40:52;;;;;;;12.80;8.05;;;24.10;74.30;;;;;;6281768;27;83323;-71
2022/06/08 00:43:52;;;;;;;11.13;7.95;;;24.10;74.10;;;;;;6283236;27;80477;-71
2022/06/08 00:46:53;;;;;;;10.48;8.05;;;24.10;74.10;;;;;;6288603;27;81865;-72
2022/06/08 00:49:53;;;;;;;11.25;6.80;;;24.10;73.60;;;;;;6271197;27;83283;-73
2022/06/08 00:52:54;;;;;;;9.48;6.72;;;24.20;73.80;;;;;;6285783;27;83652;-72
2022/06/08 00:55:54;;;;;;;12.48;7.18;;;24.20;73.90;;;;;;6304277;27;80961;-73
2022/06/08 00:58:55;;;;;;;12.07;7.15;;;24.20;73.00;;;;;;6307052;27;80787;-72
2022/06/08 01:01:55;;;;;;;11.88;7.68;;;24.30;73.70;;;;;;6302438;27;80313;-72
2022/06/08 01:04:58;;;;;;;10.98;5.85;;;24.30;73.60;;;;;;6274755;27;82172;-73
2022/06/08 01:07:59;;;;;;;9.70;6.35;;;24.30;72.50;;;;;;6287729;27;81698;-73
2022/06/08 01:11:01;;;;;;;8.38;6.47;;;24.30;73.40;;;;;;6286379;27;83232;-71
2022/06/08 01:14:02;;;;;;;13.63;7.80;;;24.40;72.60;;;;;;6280090;27;82947;-71
2022/06/08 01:17:03;;;;;;;15.32;8.35;;;24.30;72.20;;;;;;6298928;27;80578;-71
2022/06/08 01:20:03;;;;;;;9.57;7.28;;;24.30;72.50;;;;;;6288503;27;82356;-70
2022/06/08 01:23:08;;;;;;;10.07;7.03;;;24.30;72.30;;;;;;6289065;27;83305;-72
2022/06/08 01:26:09;;;;;;;10.68;7.18;;;24.30;72.40;;;;;;6283209;27;82756;-67
2022/06/08 01:29:10;;;;;;;11.93;7.05;;;24.30;72.40;;;;;;6286500;27;83104;-72
2022/06/08 01:32:11;;;;;;;7.80;6.13;;;24.40;71.90;;;;;;6286051;27;83428;-72
2022/06/08 01:35:11;;;;;;;9.88;6.78;;;24.40;72.50;;;;;;6276320;27;83598;-72
2022/06/08 01:38:12;;;;;;;11.57;6.60;;;24.40;72.50;;;;;;6287627;27;82165;-72
2022/06/08 01:41:13;;;;;;;10.32;6.40;;;24.40;72.10;;;;;;6312094;27;81040;-71
2022/06/08 01:44:13;;;;;;;9.15;6.40;;;24.40;71.70;;;;;;6311552;27;81017;-71
2022/06/08 01:47:14;;;;;;;8.45;6.28;;;24.40;72.10;;;;;;6311773;27;80798;-72
2022/06/08 01:50:14;;;;;;;10.32;7.05;;;24.40;71.70;;;;;;6304238;27;83529;-72
2022/06/08 01:53:15;;;;;;;9.45;6.50;;;24.40;71.80;;;;;;6286577;27;80290;-72
2022/06/08 01:56:15;;;;;;;8.32;6.65;;;24.40;71.80;;;;;;6262696;27;82432;-72
2022/06/08 01:59:16;;;;;;;12.70;7.70;;;24.40;71.40;;;;;;6290553;27;83379;-72
2022/06/08 02:02:17;;;;;;;10.32;6.53;;;24.40;71.00;;;;;;6284468;27;83040;-72
2022/06/08 02:05:18;;;;;;;8.57;6.88;;;24.40;71.50;;;;;;6290024;27;82630;-71
2022/06/08 02:08:19;;;;;;;10.32;7.22;;;24.40;71.10;;;;;;6310278;27;80284;-71
2022/06/08 02:11:21;;;;;;;10.82;7.22;;;24.40;71.50;;;;;;6288015;27;83035;-70
2022/06/08 02:14:24;;;;;;;10.40;7.28;;;24.40;71.20;;;;;;6275462;27;82807;-71
2022/06/08 02:17:25;;;;;;;9.85;6.88;;;24.40;71.30;;;;;;6287167;27;83049;-72
2022/06/08 02:20:26;;;;;;;13.48;7.30;;;24.40;71.30;;;;;;6291489;27;82784;-72
2022/06/08 02:23:29;;;;;;;9.40;6.43;;;24.40;71.30;;;;;;6292330;27;81615;-72
2022/06/08 02:26:30;;;;;;;9.15;7.00;;;24.40;71.20;;;;;;6292037;27;82639;-72
2022/06/08 02:29:30;;;;;;;11.77;7.30;;;24.40;71.30;;;;;;6310338;27;82295;-72
2022/06/08 02:35:50;;;;;;;11.63;6.78;;;24.40;71.20;;;;;;6284337;27;87612;-73
2022/06/08 02:38:51;;;;;;;10.25;7.28;;;24.40;71.40;;;;;;6286166;27;81642;-72
2022/06/08 02:41:53;;;;;;;11.65;7.20;;;24.40;71.10;;;;;;6272535;27;82939;-72
2022/06/08 02:44:53;;;;;;;11.05;7.00;;;24.40;72.10;;;;;;6291462;27;82914;-72
2022/06/08 02:47:54;;;;;;;10.77;6.65;;;24.40;71.50;;;;;;6290012;27;83622;-72
2022/06/08 02:50:54;;;;;;;9.43;6.28;;;24.40;71.70;;;;;;6304076;27;80585;-72
2022/06/08 02:53:59;;;;;;;9.10;5.57;;;24.40;71.60;;;;;;6288051;27;83132;-72
2022/06/08 02:57:00;;;;;;;7.60;6.65;;;24.40;71.10;;;;;;6287476;27;83413;-74
2022/06/08 03:00:01;;;;;;;9.52;6.20;;;24.40;71.10;;;;;;6305813;27;80526;-74
2022/06/08 03:03:03;;;;;;;6.85;5.47;;;24.50;70.50;;;;;;6284334;27;82536;-73
2022/06/08 03:06:04;;;;;;;8.10;5.35;;;24.50;70.50;;;;;;6291643;27;82801;-72
2022/06/08 03:09:06;;;;;;;9.25;5.97;;;24.40;70.30;;;;;;6287410;27;83426;-73
2022/06/08 03:12:07;;;;;;;9.02;6.03;;;24.50;70.40;;;;;;6291010;27;83093;-73
2022/06/08 03:15:08;;;;;;;7.18;5.30;;;24.50;70.30;;;;;;6290919;27;82216;-73
2022/06/08 03:18:10;;;;;;;8.05;6.38;;;24.50;70.20;;;;;;6286218;27;83103;-73
2022/06/08 03:21:11;;;;;;;9.05;5.68;;;24.50;69.70;;;;;;6308291;27;80068;-73
2022/06/08 03:24:12;;;;;;;6.38;5.70;;;24.50;69.50;;;;;;6290553;27;81736;-73
2022/06/08 03:27:14;;;;;;;6.35;5.13;;;24.50;69.70;;;;;;6287776;27;82759;-73
2022/06/08 03:30:22;;;;;;;7.43;5.63;;;24.60;69.80;;;;;;6305286;27;80829;-72
2022/06/08 03:33:23;;;;;;;9.38;5.32;;;24.50;69.60;;;;;;6276895;27;82527;-72
2022/06/08 03:36:23;;;;;;;7.90;5.13;;;24.60;70.50;;;;;;6292388;27;82536;-74
2022/06/08 03:39:24;;;;;;;6.05;4.80;;;24.60;70.00;;;;;;6307112;27;80419;-70
2022/06/08 03:42:24;;;;;;;8.95;5.47;;;24.60;69.50;;;;;;6277523;27;81849;-73
2022/06/08 03:45:25;;;;;;;10.73;6.55;;;24.60;69.10;;;;;;6289137;27;83129;-69
2022/06/08 03:48:26;;;;;;;7.30;5.38;;;24.60;69.10;;;;;;6303136;27;80084;-69
2022/06/08 03:51:26;;;;;;;8.25;5.45;;;24.60;69.30;;;;;;6293174;27;80563;-70
2022/06/08 03:54:27;;;;;;;8.80;5.28;;;24.60;69.60;;;;;;6302190;27;80441;-68
2022/06/08 03:57:29;;;;;;;9.10;5.60;;;24.60;70.60;;;;;;6303891;27;80569;-71
2022/06/08 04:00:30;;;;;;;6.65;4.85;;;24.60;69.90;;;;;;6282021;27;83198;-69
2022/06/08 04:03:36;;;;;;;6.72;4.65;;;24.70;69.90;;;;;;6287742;27;83227;-71
2022/06/08 04:06:37;;;;;;;7.47;5.32;;;24.70;70.10;;;;;;6305303;27;80466;-71
2022/06/08 04:09:38;;;;;;;6.30;4.28;;;24.70;69.30;;;;;;6290263;27;83171;-66
2022/06/08 04:12:39;;;;;;;7.93;5.20;;;24.70;70.30;;;;;;6288020;27;84683;-77
2022/06/08 04:15:42;;;;;;;5.32;4.25;;;24.70;70.10;;;;;;6296816;27;80451;-77
2022/06/08 04:18:47;;;;;;;9.00;5.28;;;24.70;70.30;;;;;;6288515;27;83641;-75
2022/06/08 04:21:48;;;;;;;7.55;4.72;;;24.70;70.00;;;;;;6282399;27;83331;-78
2022/06/08 04:24:49;;;;;;;11.13;4.88;;;24.80;69.90;;;;;;6278295;27;82201;-76
2022/06/08 04:27:50;;;;;;;11.00;6.20;;;24.80;69.80;;;;;;6275980;27;83525;-76
2022/06/08 04:30:51;;;;;;;7.85;5.75;;;24.80;69.70;;;;;;6292058;27;83247;-74
2022/06/08 04:33:53;;;;;;;7.93;5.18;;;24.90;69.90;;;;;;6279398;27;83542;-74
2022/06/08 04:36:56;;;;;;;6.57;4.72;;;24.80;69.70;;;;;;6285304;27;83227;-73
2022/06/08 04:40:02;;;;;;;7.20;5.05;;;24.90;70.50;;;;;;6276746;27;82755;-69
2022/06/08 04:43:03;;;;;;;6.57;4.45;;;24.80;71.00;;;;;;6284200;27;83637;-81
2022/06/08 04:46:04;;;;;;;9.05;4.95;;;24.90;70.10;;;;;;6283140;27;83189;-73
2022/06/08 04:49:08;;;;;;;9.52;5.82;;;24.80;70.50;;;;;;6284001;27;82809;-72
2022/06/08 04:52:11;;;;;;;9.95;4.90;;;24.90;69.80;;;;;;6284196;27;83007;-75
2022/06/08 04:55:12;;;;;;;11.55;5.30;;;24.80;70.60;;;;;;6288606;27;81747;-75
2022/06/08 04:58:12;;;;;;;8.88;5.70;;;24.80;71.00;;;;;;6306124;27;80309;-78
2022/06/08 05:01:14;;;;;;;9.32;5.70;;;24.80;71.20;;;;;;6286301;27;82338;-77
2022/06/08 05:04:15;;;;;;;8.65;5.30;;;24.90;71.10;;;;;;6281624;27;80506;-76
2022/06/08 05:07:18;;;;;;;12.82;5.72;;;24.90;70.90;;;;;;6288599;27;82885;-78
2022/06/08 05:10:19;;;;;;;9.65;6.05;;;24.90;71.00;;;;;;6288978;27;83895;-74
2022/06/08 05:13:19;;;;;;;13.52;6.38;;;25.00;70.80;;;;;;6305621;27;80647;-73
2022/06/08 05:16:25;;;;;;;8.75;5.00;;;25.00;71.00;;;;;;6290990;27;81721;-71
2022/06/08 05:19:29;;;;;;;12.52;4.78;;;25.00;70.50;;;;;;6291637;27;82624;-74
2022/06/08 05:22:30;;;;;;;14.40;5.82;;;25.00;69.90;;;;;;6293293;27;83224;-75
2022/06/08 05:25:32;;;;;;;11.68;5.88;;;25.00;70.40;;;;;;6289926;27;82491;-72
2022/06/08 05:28:33;;;;;;;16.00;5.50;;;25.00;71.00;;;;;;6292683;27;81573;-81
2022/06/08 05:31:35;;;;;;;17.58;6.88;;;25.00;70.90;;;;;;6294178;27;82777;-82
2022/06/08 05:34:36;;;;;;;11.25;6.93;;;25.00;70.70;;;;;;6275997;27;81565;-76
2022/06/08 05:37:37;;;;;;;11.43;7.13;;;25.00;70.20;;;;;;6283353;27;83295;-71
2022/06/08 05:40:38;;;;;;;16.77;7.35;;;25.00;70.50;;;;;;6302106;27;81577;-74
2022/06/08 05:43:41;;;;;;;15.02;7.00;;;25.00;69.60;;;;;;6287429;27;83192;-75
2022/06/08 05:46:43;;;;;;;15.60;8.07;;;25.00;69.30;;;;;;6282060;27;82866;-72
2022/06/08 05:49:48;;;;;;;12.05;7.70;;;24.90;67.80;;;;;;6277090;27;83610;-72
2022/06/08 05:52:48;;;;;;;14.38;9.10;;;24.90;68.00;;;;;;6279997;27;83053;-72
2022/06/08 05:55:49;;;;;;;17.23;8.60;;;24.90;68.30;;;;;;6280489;27;82926;-74
2022/06/08 05:58:51;;;;;;;22.90;9.55;;;24.90;67.20;;;;;;6284489;27;83136;-73
2022/06/08 06:01:52;;;;;;;18.38;10.25;;;24.90;67.80;;;;;;6279239;27;82077;-72
2022/06/08 06:04:52;;;;;;;14.98;9.95;;;24.90;67.70;;;;;;6289302;27;82990;-74
2022/06/08 06:07:53;;;;;;;17.05;9.98;;;24.90;67.60;;;;;;6292123;27;85978;-73
2022/06/08 06:11:06;;;;;;;16.13;10.48;;;24.90;67.80;;;;;;6274904;27;82928;-73
2022/06/08 06:14:14;;;;;;;18.08;10.95;;;24.90;66.90;;;;;;6279991;27;84913;-74
2022/06/08 06:17:18;;;;;;;18.25;11.13;;;24.90;67.60;;;;;;6278696;27;85362;-74
2022/06/08 06:20:19;;;;;;;19.98;11.98;;;24.80;67.80;;;;;;6287141;27;85827;-74
2022/06/08 06:23:30;;;;;;;25.42;12.70;;;24.80;66.80;;;;;;6263401;27;86101;-76
2022/06/08 06:26:36;;;;;;;18.38;11.63;;;24.80;67.60;;;;;;6280224;27;86100;-76
2022/06/08 06:29:57;;;;;;;17.52;11.60;;;24.70;67.50;;;;;;6273797;27;85161;-75
2022/06/08 06:33:14;;;;;;;18.48;10.65;;;24.80;66.30;;;;;;6281706;27;84793;-72
2022/06/08 06:36:16;;;;;;;15.82;10.23;;;24.70;66.30;;;;;;6284179;27;85728;-73
2022/06/08 06:39:17;;;;;;;17.02;9.95;;;24.60;66.90;;;;;;6273610;27;85682;-75
2022/06/08 06:42:18;;;;;;;16.10;10.13;;;24.60;66.30;;;;;;6288844;27;85654;-74
2022/06/08 06:45:23;;;;;;;19.80;9.18;;;24.70;67.30;;;;;;6287213;27;83173;-72
2022/06/08 06:48:31;;;;;;;12.10;7.82;;;24.60;66.20;;;;;;6286814;27;85603;-72
2022/06/08 06:51:36;;;;;;;11.65;8.32;;;24.60;66.50;;;;;;6274225;27;81324;-74
2022/06/08 06:54:36;;;;;;;9.05;6.53;;;24.60;66.50;;;;;;6275730;27;83400;-75
2022/06/08 06:57:40;;;;;;;9.57;6.90;;;24.60;66.20;;;;;;6267194;27;82405;-75
2022/06/08 07:00:41;;;;;;;10.32;7.28;;;24.60;66.80;;;;;;6280707;27;83283;-75
2022/06/08 07:03:45;;;;;;;10.73;6.47;;;24.60;66.00;;;;;;6270657;27;81525;-75
2022/06/08 07:06:45;;;;;;;9.27;6.57;;;24.60;66.50;;;;;;6277969;27;83257;-74
2022/06/08 07:09:46;;;;;;;10.95;6.80;;;24.60;66.50;;;;;;6278224;27;80889;-74
2022/06/08 07:12:47;;;;;;;11.13;6.65;;;24.60;67.00;;;;;;6269703;27;80319;-75
2022/06/08 07:15:48;;;;;;;13.55;7.07;;;24.60;67.20;;;;;;6276257;27;81218;-75
2022/06/08 07:18:50;;;;;;;8.48;5.78;;;24.50;66.70;;;;;;6273668;27;82448;-76
2022/06/08 07:21:51;;;;;;;9.55;6.72;;;24.50;66.90;;;;;;6279274;27;83359;-74
2022/06/08 07:24:52;;;;;;;10.80;6.13;;;24.50;67.20;;;;;;6278600;27;81836;-75
2022/06/08 07:27:52;;;;;;;12.32;7.22;;;24.50;67.00;;;;;;6271259;27;80554;-73
2022/06/08 07:30:53;;;;;;;8.55;6.30;;;24.50;67.50;;;;;;6274907;27;80522;-74
2022/06/08 07:33:53;;;;;;;11.43;7.22;;;24.50;67.60;;;;;;6281762;27;80660;-74
2022/06/08 07:36:54;;;;;;;13.63;8.52;;;24.50;67.30;;;;;;6274709;27;80518;-76
2022/06/08 07:39:54;;;;;;;13.35;8.90;;;24.50;66.60;;;;;;6279526;27;82131;-73
2022/06/08 07:42:55;;;;;;;9.35;6.70;;;24.50;66.90;;;;;;6277100;27;80667;-75
2022/06/08 07:45:55;;;;;;;12.13;7.80;;;24.50;67.90;;;;;;6265670;27;80410;-74
2022/06/08 07:52:16;;;;;;;13.50;8.68;;;24.50;67.50;;;;;;6244915;27;85300;-73
2022/06/08 07:55:16;;;;;;;17.35;9.48;;;24.40;67.30;;;;;;6241608;27;80731;-73
2022/06/08 07:58:17;;;;;;;15.57;8.88;;;24.50;67.60;;;;;;6247932;27;80407;-74
2022/06/08 08:01:17;;;;;;;16.13;9.60;;;24.50;67.70;;;;;;6244263;27;81489;-74
2022/06/08 08:04:18;;;;;;;17.60;10.45;;;24.50;68.40;;;;;;6250252;27;80778;-72
2022/06/08 08:07:18;;;;;;;17.23;11.10;;;24.50;67.90;;;;;;6246320;27;83290;-72
2022/06/08 08:10:18;;;;;;;18.38;10.95;;;24.50;67.30;;;;;;6238267;27;83398;-74
2022/06/08 08:13:19;;;;;;;19.00;12.43;;;24.50;67.90;;;;;;6245744;27;82931;-74
2022/06/08 08:16:19;;;;;;;19.33;9.55;;;24.50;68.80;;;;;;6240814;28;84002;-73
2022/06/08 08:19:20;;;;;;;17.33;10.02;;;24.50;68.30;;;;;;6240301;28;82863;-73
2022/06/08 08:22:21;;;;;;;14.73;9.85;;;24.60;68.50;;;;;;6235293;27;82755;-72
2022/06/08 08:25:22;;;;;;;21.00;11.00;;;24.50;68.30;;;;;;6247309;27;84252;-73
2022/06/08 08:28:23;;;;;;;14.32;9.20;;;24.60;68.10;;;;;;6247329;27;83190;-70
2022/06/08 08:31:23;;;;;;;22.98;10.43;;;24.50;68.30;;;;;;6243984;27;82905;-75
2022/06/08 08:34:23;;;;;;;18.70;11.27;;;24.50;68.60;;;;;;6247585;27;82968;-75
2022/06/08 08:37:24;;;;;;;16.05;10.23;;;24.50;68.30;;;;;;6250106;27;83229;-75
2022/06/08 08:40:25;;;;;;;18.05;11.23;;;24.50;68.70;;;;;;6247114;27;84237;-75
2022/06/08 08:43:25;;;;;;;16.15;10.65;;;24.40;68.70;;;;;;6244158;27;83109;-75
2022/06/08 08:46:26;;;;;;;15.57;10.52;;;24.40;69.10;;;;;;6247958;27;82786;-75
2022/06/08 08:49:26;;;;;;;21.35;11.25;;;24.40;69.40;;;;;;6250565;27;84431;-75
2022/06/08 08:52:26;;;;;;;18.50;10.65;;;24.40;69.30;;;;;;6276471;27;83133;-74
2022/06/08 08:55:27;;;;;;;15.68;10.85;;;24.40;69.10;;;;;;6278747;27;83410;-76
2022/06/08 08:58:27;;;;;;;19.10;10.98;;;24.40;69.40;;;;;;6299467;27;82971;-74
2022/06/08 09:01:28;;;;;;;16.23;9.73;;;24.40;70.40;;;;;;6295526;27;83523;-77
2022/06/08 09:04:28;;;;;;;18.58;11.05;;;24.40;70.40;;;;;;6306056;27;83218;-75
2022/06/08 09:07:29;;;;;;;15.30;10.35;;;24.50;70.50;;;;;;6305460;27;82855;-75
2022/06/08 09:10:30;;;;;;;17.70;11.25;;;24.50;71.20;;;;;;6295340;27;82852;-75
2022/06/08 09:13:30;;;;;;;18.13;10.52;;;24.50;71.30;;;;;;6303247;27;82869;-75
2022/06/08 09:16:40;;;;;;;18.48;11.25;;;24.50;71.50;;;;;;6297594;27;83495;-73
2022/06/08 09:19:43;;;;;;;20.00;12.00;;;24.50;71.90;;;;;;6288841;27;83290;-77
2022/06/08 09:22:44;;;;;;;19.63;11.85;;;24.50;71.40;;;;;;6294330;27;83369;-75
2022/06/08 09:25:44;;;;;;;17.63;11.25;;;24.50;72.00;;;;;;6276393;27;85169;-76
2022/06/08 09:28:45;;;;;;;18.65;11.07;;;24.50;72.30;;;;;;6301340;27;84648;-75
2022/06/08 09:31:46;;;;;;;19.48;11.65;;;24.50;72.30;;;;;;6290296;27;84580;-75
2022/06/08 09:34:46;;;;;;;28.88;15.13;;;24.50;72.90;;;;;;6268718;27;83029;-76
2022/06/08 09:37:47;;;;;;;21.50;12.13;;;24.50;72.50;;;;;;6294948;27;82931;-71
2022/06/08 09:40:47;;;;;;;17.80;11.75;;;24.50;72.60;;;;;;6298639;27;82957;-76
2022/06/08 09:43:49;;;;;;;18.13;12.02;;;24.50;73.40;;;;;;6263330;27;84061;-75
2022/06/08 09:53:27;;;;;;;16.00;10.75;;;24.50;74.60;;;;;;6303079;27;84204;-76
2022/06/08 09:56:28;;;;;;;19.35;11.25;;;24.50;74.10;;;;;;6303554;27;83088;-77
2022/06/08 09:59:29;;;;;;;19.65;11.93;;;24.50;74.30;;;;;;6294250;27;83612;-75
2022/06/08 10:02:29;;;;;;;19.58;11.00;;;24.50;74.60;;;;;;6296781;27;83604;-76
2022/06/08 10:05:30;;;;;;;23.58;11.70;;;24.50;74.60;;;;;;6299425;27;82989;-74
2022/06/08 10:08:30;;;;;;;24.65;11.05;;;24.50;75.30;;;;;;6295232;27;83621;-73
2022/06/08 10:11:42;;;;;;;17.05;10.60;;;24.50;74.40;;;;;;6301017;27;83018;-73
2022/06/08 10:14:42;;;;;;;17.27;10.13;;;24.50;75.00;;;;;;6305947;27;83479;-76
2022/06/08 10:17:43;;;;;;;19.52;11.13;;;24.50;75.30;;;;;;6294716;27;83690;-76
2022/06/08 10:20:44;;;;;;;18.63;10.65;;;24.50;75.00;;;;;;6299010;27;83075;-75
2022/06/08 10:23:44;;;;;;;15.70;10.30;;;24.50;74.10;;;;;;6299439;27;83698;-74
2022/06/08 10:26:45;;;;;;;13.40;9.02;;;24.50;74.30;;;;;;6306772;27;83089;-76
2022/06/08 10:29:45;;;;;;;17.48;9.30;;;24.50;74.40;;;;;;6287028;27;81976;-75
2022/06/08 10:32:46;;;;;;;15.50;9.65;;;24.50;74.50;;;;;;6292322;27;81461;-74
2022/06/08 10:35:48;;;;;;;16.35;9.40;;;24.50;74.40;;;;;;6286727;27;82007;-74
2022/06/08 10:38:48;;;;;;;18.02;9.25;;;24.50;74.50;;;;;;6297884;27;80720;-74
2022/06/08 10:45:08;;;;;;;14.63;8.32;;;24.60;73.60;;;;;;6307128;27;81745;-75
2022/06/08 10:48:09;;;;;;;24.10;8.50;;;24.50;74.10;;;;;;6293001;27;80537;-74
2022/06/08 10:51:10;;;;;;;11.30;8.05;;;24.60;74.20;;;;;;6291568;27;80278;-74
2022/06/08 10:57:37;;;;;;;14.88;7.93;;;24.60;74.40;;;;;;6265694;27;82161;-75
2022/06/08 11:00:38;;;;;;;9.95;6.97;;;24.60;74.40;;;;;;6266361;27;81566;-75
2022/06/08 11:03:38;;;;;;;9.57;6.88;;;24.60;74.10;;;;;;6280005;27;80495;-74
2022/06/08 11:06:39;;;;;;;11.93;7.13;;;24.60;73.80;;;;;;6301157;27;80737;-75
2022/06/08 11:09:48;;;;;;;9.70;6.68;;;24.50;73.10;;;;;;6305490;27;80514;-72
2022/06/08 11:12:51;;;;;;;9.18;6.13;;;24.60;73.30;;;;;;6301995;27;81123;-76
2022/06/08 11:15:51;;;;;;;7.10;6.00;;;24.60;73.00;;;;;;6302098;27;81393;-77
2022/06/08 11:18:52;;;;;;;10.07;6.65;;;24.60;74.20;;;;;;6281166;27;82564;-75
2022/06/08 11:21:54;;;;;;;8.55;6.22;;;24.60;73.90;;;;;;6308213;27;80893;-75
2022/06/08 11:24:55;;;;;;;7.85;5.70;;;24.60;73.90;;;;;;6290667;27;80358;-74
2022/06/08 11:27:55;;;;;;;11.07;6.30;;;24.60;74.10;;;;;;6298515;27;80698;-75
2022/06/08 11:30:56;;;;;;;7.80;5.60;;;24.60;73.60;;;;;;6302032;27;80641;-75
2022/06/08 11:33:56;;;;;;;7.18;5.63;;;24.60;73.40;;;;;;6279664;27;83304;-70
2022/06/08 11:36:57;;;;;;;8.95;6.35;;;24.60;72.90;;;;;;6301535;27;81515;-72
2022/06/08 11:39:57;;;;;;;10.93;5.68;;;24.60;73.10;;;;;;6298104;27;80346;-74
2022/06/08 11:42:57;;;;;;;6.72;5.28;;;24.60;73.60;;;;;;6308741;27;81779;-72
2022/06/08 11:45:58;;;;;;;9.35;5.75;;;24.60;73.20;;;;;;6283452;27;83356;-75
2022/06/08 11:48:59;;;;;;;10.52;7.18;;;24.60;73.80;;;;;;6310618;27;80569;-76
2022/06/08 11:51:59;;;;;;;13.10;6.97;;;24.60;74.00;;;;;;6295614;27;80619;-72
2022/06/08 11:55:00;;;;;;;8.23;5.95;;;24.60;72.10;;;;;;6309988;27;80316;-79
2022/06/08 11:58:00;;;;;;;9.75;6.35;;;24.60;72.90;;;;;;6305087;27;80826;-77
2022/06/08 12:01:01;;;;;;;9.90;6.43;;;24.70;73.60;;;;;;6287254;27;86442;-78
2022/06/08 12:04:01;;;;;;;10.18;6.15;;;24.70;73.90;;;;;;6287897;27;80241;-75
2022/06/08 12:07:02;;;;;;;8.52;5.88;;;24.70;74.70;;;;;;6294259;27;80500;-73
2022/06/08 12:10:03;;;;;;;17.33;6.85;;;24.70;73.50;;;;;;6298543;27;80279;-74
2022/06/08 12:13:03;;;;;;;11.38;7.70;;;24.70;73.20;;;;;;6287201;27;83276;-75
2022/06/08 12:16:04;;;;;;;11.88;6.95;;;24.80;72.80;;;;;;6308430;27;80935;-74
2022/06/08 12:19:05;;;;;;;23.35;7.25;;;24.80;74.30;;;;;;6305516;27;80484;-74
2022/06/08 12:22:05;;;;;;;9.38;6.82;;;24.80;74.60;;;;;;6304256;27;81289;-75
2022/06/08 12:25:06;;;;;;;13.45;7.18;;;24.80;74.40;;;;;;6299354;27;80448;-71
2022/06/08 12:28:06;;;;;;;12.43;7.53;;;24.70;73.80;;;;;;6302131;27;80917;-72
2022/06/08 12:31:07;;;;;;;19.55;7.40;;;24.70;73.50;;;;;;6278263;27;80539;-73
2022/06/08 12:34:07;;;;;;;13.85;8.40;;;24.80;74.30;;;;;;6287718;27;80785;-74
2022/06/08 12:37:08;;;;;;;13.20;8.60;;;24.80;74.10;;;;;;6301895;27;80668;-77
2022/06/08 12:40:08;;;;;;;14.02;9.30;;;24.80;75.00;;;;;;6287907;27;82674;-78
2022/06/08 12:43:10;;;;;;;17.50;9.70;;;24.80;73.50;;;;;;6304969;27;81072;-79
2022/06/08 12:46:12;;;;;;;20.67;9.27;;;24.80;73.80;;;;;;6306659;27;80411;-76
2022/06/08 12:49:12;;;;;;;13.63;9.02;;;24.80;73.00;;;;;;6291878;27;80480;-77
2022/06/08 12:52:13;;;;;;;16.52;10.00;;;24.80;73.30;;;;;;6284413;27;83343;-78
2022/06/08 12:55:13;;;;;;;15.35;9.82;;;24.80;74.20;;;;;;6295571;27;82700;-78
2022/06/08 12:58:14;;;;;;;24.33;9.93;;;24.80;73.90;;;;;;6282743;27;85711;-75
2022/06/08 13:01:14;;;;;;;11.88;7.90;;;24.90;73.30;;;;;;6279154;27;82750;-76
2022/06/08 13:04:15;;;;;;;12.77;8.20;;;24.90;73.90;;;;;;6298243;27;80341;-74
2022/06/08 13:07:15;;;;;;;18.90;9.27;;;24.90;73.00;;;;;;6299603;27;80480;-77
2022/06/08 13:10:16;;;;;;;15.15;7.90;;;24.80;71.70;;;;;;6303627;27;80685;-80
2022/06/08 13:13:16;;;;;;;16.10;8.93;;;24.80;72.60;;;;;;6307967;27;80815;-72
2022/06/08 13:16:17;;;;;;;14.32;8.45;;;24.90;72.30;;;;;;6295955;27;80494;-74
2022/06/08 13:19:17;;;;;;;13.57;8.38;;;24.90;72.70;;;;;;6300898;27;80270;-74
2022/06/08 13:22:18;;;;;;;14.23;7.68;;;24.90;72.70;;;;;;6288510;27;83237;-76
2022/06/08 13:25:19;;;;;;;11.70;7.53;;;24.90;72.60;;;;;;6307819;27;81641;-73
2022/06/08 13:28:19;;;;;;;14.63;7.32;;;24.90;72.90;;;;;;6281212;27;83505;-76
2022/06/08 13:31:23;;;;;;;13.50;6.97;;;24.90;72.70;;;;;;6294789;27;80462;-76
2022/06/08 13:34:24;;;;;;;14.07;6.22;;;24.90;72.70;;;;;;6302545;27;80348;-74
2022/06/08 13:37:25;;;;;;;11.20;6.25;;;24.90;73.10;;;;;;6311300;27;81055;-75
2022/06/08 13:40:25;;;;;;;10.10;6.57;;;24.90;71.90;;;;;;6301584;27;80399;-71
2022/06/08 13:43:25;;;;;;;12.63;7.18;;;24.90;71.60;;;;;;6292810;27;81443;-78
2022/06/08 13:46:26;;;;;;;13.50;9.27;;;24.80;71.30;;;;;;6283240;27;85019;-75
2022/06/08 13:49:27;;;;;;;12.40;8.27;;;24.80;71.70;;;;;;6297556;27;80653;-80
2022/06/08 13:52:27;;;;;;;15.40;9.68;;;24.80;70.90;;;;;;6294403;27;81023;-76
2022/06/08 13:55:28;;;;;;;13.73;9.32;;;24.90;70.20;;;;;;6311799;27;80643;-75
2022/06/08 13:58:28;;;;;;;12.98;8.77;;;24.90;71.10;;;;;;6285879;27;81030;-76
2022/06/08 14:01:30;;;;;;;12.13;8.13;;;24.90;70.40;;;;;;6307981;27;81094;-77
2022/06/08 14:04:30;;;;;;;14.25;8.48;;;24.90;69.50;;;;;;6282966;27;80415;-73
2022/06/08 14:14:09;;;;;;;10.00;6.57;;;24.90;70.60;;;;;;6307482;27;80383;-73
2022/06/08 14:17:10;;;;;;;9.50;6.72;;;24.90;70.30;;;;;;6309467;27;81513;-76
2022/06/08 14:20:11;;;;;;;10.75;7.47;;;24.90;70.50;;;;;;6309294;27;80486;-77
2022/06/08 14:23:11;;;;;;;18.98;6.63;;;25.00;71.30;;;;;;6299841;27;80353;-76
2022/06/08 14:26:12;;;;;;;14.93;6.53;;;24.90;71.80;;;;;;6279345;27;80345;-77
2022/06/08 14:29:14;;;;;;;12.45;6.95;;;25.00;71.90;;;;;;6308070;27;80541;-76
2022/06/08 14:32:15;;;;;;;10.07;5.95;;;24.90;72.10;;;;;;6302330;27;81721;-74
2022/06/08 14:35:16;;;;;;;15.15;6.18;;;25.00;72.10;;;;;;6285262;27;87042;-76
2022/06/08 14:38:16;;;;;;;14.27;6.43;;;25.00;71.90;;;;;;6290445;27;80229;-75
2022/06/08 14:41:17;;;;;;;11.23;6.70;;;25.00;72.20;;;;;;6299282;27;80353;-79
2022/06/08 14:44:19;;;;;;;10.82;6.00;;;25.10;72.10;;;;;;6300128;27;82648;-72
2022/06/08 14:47:20;;;;;;;8.73;5.97;;;25.00;72.30;;;;;;6303471;27;80462;-76
2022/06/08 14:50:20;;;;;;;9.18;5.65;;;25.00;72.70;;;;;;6302473;27;80380;-71
2022/06/08 14:53:21;;;;;;;8.23;6.22;;;25.00;72.50;;;;;;6304230;27;80449;-72
2022/06/08 14:56:24;;;;;;;7.97;6.10;;;25.10;73.40;;;;;;6299548;27;80176;-73
2022/06/08 14:59:26;;;;;;;8.65;6.25;;;25.10;72.90;;;;;;6303125;27;80543;-72
2022/06/08 15:02:26;;;;;;;8.85;5.90;;;25.10;73.30;;;;;;6289643;27;82204;-73
2022/06/08 15:05:27;;;;;;;9.80;5.90;;;25.10;73.40;;;;;;6290249;27;81164;-73
2022/06/08 15:08:28;;;;;;;10.20;5.90;;;25.10;72.40;;;;;;6308863;27;80130;-76
2022/06/08 15:14:48;;;;;;;10.57;6.15;;;25.10;73.30;;;;;;6298171;27;80319;-74
2022/06/08 15:17:49;;;;;;;8.48;6.10;;;25.00;72.80;;;;;;6284429;27;82736;-72
2022/06/08 15:20:49;;;;;;;8.88;5.63;;;25.10;72.20;;;;;;6306059;27;80636;-71
2022/06/08 15:23:50;;;;;;;9.20;5.35;;;25.00;72.80;;;;;;6296444;27;81586;-72
2022/06/08 15:26:50;;;;;;;11.85;6.57;;;25.00;72.40;;;;;;6289362;27;80235;-75
2022/06/08 15:29:51;;;;;;;11.68;6.05;;;25.00;72.20;;;;;;6283905;27;80525;-69
2022/06/08 15:32:51;;;;;;;8.55;5.93;;;25.10;72.20;;;;;;6302379;27;81619;-75
2022/06/08 15:35:52;;;;;;;12.35;6.63;;;25.10;72.90;;;;;;6287314;27;81921;-77
2022/06/08 15:38:52;;;;;;;7.30;5.20;;;25.10;72.60;;;;;;6296065;27;80535;-76
2022/06/08 15:41:53;;;;;;;8.32;5.85;;;25.10;72.60;;;;;;6299622;27;80387;-78
2022/06/08 15:44:54;;;;;;;9.10;5.80;;;25.10;72.80;;;;;;6297002;27;80348;-77
2022/06/08 15:47:54;;;;;;;9.60;6.22;;;25.20;72.60;;;;;;6296255;27;80458;-78
2022/06/08 15:50:55;;;;;;;7.72;6.18;;;25.20;72.50;;;;;;6305867;27;80690;-80
2022/06/08 15:53:55;;;;;;;9.55;6.50;;;25.20;73.20;;;;;;6300085;27;80775;-82
2022/06/08 15:56:56;;;;;;;22.02;6.13;;;25.20;72.80;;;;;;6263439;27;81834;-79
2022/06/08 15:59:56;;;;;;;10.32;6.75;;;25.20;72.40;;;;;;6304748;27;80520;-78
2022/06/08 16:02:57;;;;;;;7.28;5.68;;;25.20;72.60;;;;;;6293134;27;80312;-74